createdAt,value
2018-02-12T00:01:55.924Z,98.50
2018-02-12T00:04:23.365Z,98.30
2018-02-12T00:06:50.824Z,98.60
2018-02-12T00:09:18.512Z,98.40
2018-02-12T00:11:45.980Z,98.50
2018-02-12T00:14:13.432Z,98.60
2018-02-12T00:16:40.889Z,98.80
2018-02-12T00:19:08.356Z,99.00
2018-02-12T00:21:35.804Z,99.00
2018-02-12T00:24:03.233Z,98.70
2018-02-12T00:26:30.744Z,99.00
2018-02-12T00:28:58.194Z,99.20
2018-02-12T00:31:25.735Z,99.10
2018-02-12T00:33:53.173Z,99.10
2018-02-12T00:36:20.615Z,99.00
2018-02-12T00:38:48.069Z,98.90
2018-02-12T00:41:15.618Z,98.70
2018-02-12T00:43:43.068Z,98.60
2018-02-12T00:46:10.534Z,98.60
2018-02-12T00:48:37.974Z,98.50
2018-02-12T00:51:05.428Z,98.40
2018-02-12T00:53:32.869Z,98.20
2018-02-12T00:56:00.321Z,98.10
2018-02-12T00:58:27.761Z,97.90
2018-02-12T01:00:55.197Z,97.80
2018-02-12T01:03:22.657Z,97.90
2018-02-12T01:05:50.146Z,97.80
2018-02-12T01:08:17.557Z,97.80
2018-02-12T01:10:44.996Z,97.70
2018-02-12T01:13:12.435Z,97.80
2018-02-12T01:15:43.851Z,98.00
2018-02-12T01:22:45.592Z,98.20
2018-02-12T01:25:13.408Z,98.60
2018-02-12T01:27:40.879Z,98.70
2018-02-12T01:30:08.324Z,99.00
2018-02-12T01:32:35.766Z,99.20
2018-02-12T01:35:03.279Z,99.70
2018-02-12T01:37:30.694Z,99.90
2018-02-12T01:39:58.141Z,99.90
2018-02-12T01:42:25.573Z,99.90
2018-02-12T01:44:53.006Z,99.90
2018-02-12T01:47:20.469Z,99.90
2018-02-12T01:49:47.909Z,99.90
2018-02-12T01:52:15.388Z,99.90
2018-02-12T01:54:42.851Z,99.90
2018-02-12T01:57:10.288Z,99.90
2018-02-12T01:59:37.753Z,99.90
2018-02-12T02:02:05.194Z,99.90
2018-02-12T02:04:32.644Z,99.90
2018-02-12T02:07:00.077Z,99.90
2018-02-12T02:09:27.520Z,99.90
2018-02-12T02:11:54.986Z,99.90
2018-02-12T02:14:22.442Z,99.90
2018-02-12T02:16:50.128Z,99.90
2018-02-12T02:19:17.568Z,99.90
2018-02-12T02:21:45.026Z,99.90
2018-02-12T02:24:12.484Z,99.90
2018-02-12T02:26:39.936Z,99.90
2018-02-12T02:29:07.389Z,99.90
2018-02-12T02:31:34.841Z,99.90
2018-02-12T02:34:02.272Z,99.90
2018-02-12T02:36:29.713Z,99.90
2018-02-12T02:38:57.161Z,99.90
2018-02-12T02:41:25.085Z,99.90
2018-02-12T02:43:52.530Z,99.90
2018-02-12T02:46:20.734Z,99.90
2018-02-12T02:48:48.196Z,99.90
2018-02-12T02:51:15.658Z,99.90
2018-02-12T02:53:43.404Z,99.90
2018-02-12T02:56:10.842Z,99.90
2018-02-12T02:58:38.287Z,99.90
2018-02-12T03:01:05.744Z,99.90
2018-02-12T03:03:33.172Z,99.90
2018-02-12T03:06:00.628Z,99.90
2018-02-12T03:08:28.066Z,99.90
2018-02-12T03:10:55.534Z,99.90
2018-02-12T03:13:22.997Z,99.90
2018-02-12T03:15:50.452Z,99.90
2018-02-12T03:18:17.918Z,99.90
2018-02-12T03:20:45.524Z,99.70
2018-02-12T03:23:12.987Z,99.60
2018-02-12T03:25:40.467Z,99.40
2018-02-12T03:28:07.989Z,99.20
2018-02-12T03:30:36.366Z,99.00
2018-02-12T03:33:03.784Z,99.00
2018-02-12T03:35:31.225Z,98.90
2018-02-12T03:37:58.676Z,98.90
2018-02-12T03:40:26.112Z,98.70
2018-02-12T03:42:53.558Z,98.60
2018-02-12T03:45:20.996Z,98.50
2018-02-12T03:47:48.432Z,98.40
2018-02-12T03:50:15.887Z,98.30
2018-02-12T03:52:43.336Z,98.10
2018-02-12T03:55:10.775Z,98.00
2018-02-12T03:57:38.211Z,98.00
2018-02-12T04:00:05.659Z,98.00
2018-02-12T04:02:33.109Z,98.00
2018-02-12T04:05:00.549Z,98.00
2018-02-12T04:07:28.006Z,98.10
2018-02-12T04:09:56.768Z,98.20
2018-02-12T04:12:24.208Z,98.30
2018-02-12T04:14:51.654Z,98.30
2018-02-12T04:17:19.865Z,98.20
2018-02-12T04:19:47.659Z,98.20
2018-02-12T04:22:17.981Z,98.10
2018-02-12T04:24:45.397Z,98.10
2018-02-12T04:27:12.853Z,98.00
2018-02-12T04:29:41.047Z,98.10
2018-02-12T04:32:09.048Z,98.10
2018-02-12T04:34:36.528Z,98.00
2018-02-12T04:37:03.965Z,98.00
2018-02-12T04:39:31.418Z,97.90
2018-02-12T04:41:58.878Z,97.90
2018-02-12T04:44:26.338Z,97.80
2018-02-12T04:46:53.765Z,97.60
2018-02-12T04:49:21.980Z,97.30
2018-02-12T04:51:49.465Z,97.30
2018-02-12T04:54:16.906Z,97.10
2018-02-12T04:56:44.367Z,97.10
2018-02-12T04:59:11.788Z,97.10
2018-02-12T05:01:39.221Z,97.00
2018-02-12T05:04:06.660Z,96.80
2018-02-12T05:06:34.240Z,96.80
2018-02-12T05:09:02.097Z,96.70
2018-02-12T05:11:29.619Z,96.50
2018-02-12T05:13:57.062Z,96.30
2018-02-12T05:16:25.279Z,95.90
2018-02-12T05:18:52.741Z,95.80
2018-02-12T05:21:20.204Z,95.70
2018-02-12T05:23:47.633Z,95.70
2018-02-12T05:26:15.075Z,95.60
2018-02-12T05:28:42.523Z,95.60
2018-02-12T05:31:09.966Z,96.00
2018-02-12T05:33:37.422Z,95.80
2018-02-12T05:36:04.867Z,95.90
2018-02-12T05:38:32.457Z,96.20
2018-02-12T05:40:59.904Z,96.20
2018-02-12T05:43:27.351Z,96.20
2018-02-12T05:45:54.959Z,96.20
2018-02-12T05:48:22.381Z,96.30
2018-02-12T05:50:49.964Z,96.20
2018-02-12T05:53:17.401Z,96.20
2018-02-12T05:55:44.845Z,96.20
2018-02-12T05:58:12.289Z,96.30
2018-02-12T06:00:41.601Z,96.30
2018-02-12T06:03:09.806Z,96.30
2018-02-12T06:05:37.274Z,96.20
2018-02-12T06:08:04.713Z,96.30
2018-02-12T06:10:32.172Z,96.30
2018-02-12T06:12:59.605Z,96.40
2018-02-12T06:15:27.044Z,96.50
2018-02-12T06:17:54.503Z,96.60
2018-02-12T06:20:21.952Z,96.80
2018-02-12T06:22:49.405Z,97.00
2018-02-12T06:25:16.842Z,97.10
2018-02-12T06:27:44.281Z,97.10
2018-02-12T06:30:11.734Z,97.10
2018-02-12T06:32:39.176Z,97.20
2018-02-12T06:35:06.620Z,97.20
2018-02-12T06:37:34.073Z,97.10
2018-02-12T06:40:01.511Z,97.20
2018-02-12T06:42:28.956Z,97.10
2018-02-12T06:44:56.402Z,96.90
2018-02-12T06:47:23.848Z,96.80
2018-02-12T06:49:51.281Z,96.60
2018-02-12T06:52:18.721Z,96.30
2018-02-12T06:54:46.174Z,96.10
2018-02-12T06:57:13.609Z,95.80
2018-02-12T06:59:41.060Z,95.60
2018-02-12T07:02:10.005Z,94.80
2018-02-12T07:04:37.438Z,94.80
2018-02-12T07:07:04.892Z,95.10
2018-02-12T07:09:32.333Z,94.50
2018-02-12T07:11:59.788Z,94.20
2018-02-12T07:14:27.245Z,93.90
2018-02-12T07:16:54.822Z,93.90
2018-02-12T07:19:22.678Z,93.80
2018-02-12T07:21:50.123Z,94.00
2018-02-12T07:24:17.564Z,94.20
2018-02-12T07:26:49.434Z,94.60
2018-02-12T07:29:16.881Z,95.60
2018-02-12T07:31:44.356Z,96.40
2018-02-12T07:34:11.802Z,96.90
2018-02-12T07:36:39.223Z,97.30
2018-02-12T07:39:06.677Z,97.40
2018-02-12T07:41:34.146Z,97.40
2018-02-12T07:44:01.592Z,97.50
2018-02-12T07:46:29.352Z,97.50
2018-02-12T07:48:56.796Z,97.50
2018-02-12T07:51:24.591Z,97.40
2018-02-12T07:53:55.422Z,97.40
2018-02-12T07:56:22.863Z,97.20
2018-02-12T07:58:50.306Z,97.10
2018-02-12T08:01:17.771Z,96.60
2018-02-12T08:03:45.233Z,96.50
2018-02-12T08:06:12.668Z,96.80
2018-02-12T08:08:40.882Z,92.90
2018-02-12T08:11:08.308Z,92.80
2018-02-12T08:13:35.761Z,90.50
2018-02-12T08:16:03.225Z,83.80
2018-02-12T08:18:30.893Z,78.90
2018-02-12T08:20:58.296Z,78.50
2018-02-12T08:23:25.736Z,79.20
2018-02-12T08:25:53.352Z,79.40
2018-02-12T08:28:20.793Z,80.90
2018-02-12T08:30:48.234Z,82.30
2018-02-12T08:33:15.699Z,84.20
2018-02-12T08:35:43.140Z,85.40
2018-02-12T08:38:10.589Z,85.30
2018-02-12T08:40:38.797Z,85.60
2018-02-12T08:43:06.237Z,86.40
2018-02-12T08:45:33.684Z,87.70
2018-02-12T08:48:01.314Z,90.10
2018-02-12T08:50:28.768Z,91.10
2018-02-12T08:52:56.203Z,91.90
2018-02-12T08:55:23.637Z,92.40
2018-02-12T08:57:51.860Z,93.50
2018-02-12T09:00:19.827Z,93.40
2018-02-12T09:02:47.279Z,91.40
2018-02-12T09:05:14.721Z,86.70
2018-02-12T09:07:42.377Z,83.70
2018-02-12T09:10:09.836Z,83.00
2018-02-12T09:12:37.369Z,83.60
2018-02-12T09:15:04.816Z,84.90
2018-02-12T09:17:32.253Z,86.90
2018-02-12T09:19:59.692Z,88.20
2018-02-12T09:22:27.145Z,89.60
2018-02-12T09:24:54.581Z,90.20
2018-02-12T09:27:22.033Z,90.80
2018-02-12T09:29:49.476Z,91.40
2018-02-12T09:32:16.909Z,91.80
2018-02-12T09:34:44.356Z,92.20
2018-02-12T09:37:11.804Z,92.30
2018-02-12T09:39:39.261Z,92.30
2018-02-12T09:42:06.697Z,92.40
2018-02-12T09:44:34.131Z,92.40
2018-02-12T09:47:01.597Z,92.20
2018-02-12T09:49:29.040Z,91.60
2018-02-12T09:51:56.489Z,91.40
2018-02-12T09:54:24.452Z,91.30
2018-02-12T09:56:52.652Z,90.80
2018-02-12T09:59:20.100Z,90.80
2018-02-12T10:01:47.548Z,90.30
2018-02-12T10:04:15.790Z,88.30
2018-02-12T10:06:43.233Z,88.10
2018-02-12T10:09:10.682Z,88.30
2018-02-12T10:11:38.146Z,87.60
2018-02-12T10:14:05.585Z,86.80
2018-02-12T10:16:33.049Z,85.50
2018-02-12T10:19:00.487Z,84.70
2018-02-12T10:21:27.926Z,84.00
2018-02-12T10:23:55.440Z,83.20
2018-02-12T10:26:22.872Z,83.30
2018-02-12T10:28:50.340Z,83.00
2018-02-12T10:31:17.799Z,82.10
2018-02-12T10:33:45.252Z,81.70
2018-02-12T10:36:14.195Z,79.70
2018-02-12T10:38:41.632Z,79.60
2018-02-12T10:41:09.085Z,78.10
2018-02-12T10:43:36.516Z,75.70
2018-02-12T10:46:03.960Z,75.80
2018-02-12T10:48:31.409Z,76.20
2018-02-12T10:50:58.850Z,76.50
2018-02-12T10:53:26.301Z,76.20
2018-02-12T10:55:53.737Z,75.30
2018-02-12T10:58:21.181Z,74.80
2018-02-12T11:00:48.655Z,74.60
2018-02-12T11:03:16.116Z,74.20
2018-02-12T11:05:43.760Z,73.90
2018-02-12T11:08:11.213Z,73.50
2018-02-12T11:10:38.644Z,73.20
2018-02-12T11:13:06.105Z,73.20
2018-02-12T11:15:33.541Z,73.80
2018-02-12T11:18:00.994Z,74.10
2018-02-12T11:20:28.464Z,72.90
2018-02-12T11:22:55.900Z,73.10
2018-02-12T11:25:23.358Z,73.40
2018-02-12T11:27:50.806Z,73.50
2018-02-12T11:30:18.244Z,73.20
2018-02-12T11:32:45.693Z,73.10
2018-02-12T11:35:13.145Z,74.00
2018-02-12T11:37:40.604Z,69.30
2018-02-12T11:40:08.039Z,64.80
2018-02-12T11:42:36.267Z,63.00
2018-02-12T11:45:03.709Z,63.00
2018-02-12T11:47:31.401Z,62.00
2018-02-12T11:49:58.864Z,59.40
2018-02-12T11:52:26.306Z,57.30
2018-02-12T11:54:53.733Z,57.60
2018-02-12T11:57:21.184Z,58.00
2018-02-12T11:59:48.614Z,59.60
2018-02-12T12:02:16.082Z,59.60
2018-02-12T12:04:43.543Z,61.00
2018-02-12T12:07:10.981Z,60.80
2018-02-12T12:09:38.428Z,59.10
2018-02-12T12:12:05.868Z,56.20
2018-02-12T12:14:34.096Z,51.20
2018-02-12T12:17:01.533Z,51.00
2018-02-12T12:19:28.974Z,48.80
2018-02-12T12:21:56.412Z,46.80
2018-02-12T12:24:24.581Z,46.20
2018-02-12T12:26:52.054Z,45.40
2018-02-12T12:29:19.489Z,45.20
2018-02-12T12:31:46.946Z,44.50
2018-02-12T12:34:14.426Z,44.50
2018-02-12T12:36:41.889Z,45.30
2018-02-12T12:39:09.333Z,45.20
2018-02-12T12:41:36.791Z,46.00
2018-02-12T12:44:04.479Z,46.70
2018-02-12T12:46:31.936Z,49.30
2018-02-12T12:48:59.373Z,49.70
2018-02-12T12:51:26.825Z,49.80
2018-02-12T12:53:54.248Z,51.10
2018-02-12T12:56:22.009Z,51.90
2018-02-12T12:58:49.449Z,51.80
2018-02-12T13:01:16.922Z,51.50
2018-02-12T13:03:44.353Z,52.50
2018-02-12T13:06:11.841Z,50.50
2018-02-12T13:08:39.245Z,50.90
2018-02-12T13:11:06.681Z,51.70
2018-02-12T13:13:34.900Z,53.10
2018-02-12T13:16:02.417Z,53.10
2018-02-12T13:18:30.000Z,53.60
2018-02-12T13:20:57.488Z,54.90
2018-02-12T13:23:24.949Z,55.70
2018-02-12T13:25:52.382Z,56.10
2018-02-12T13:28:19.832Z,56.20
2018-02-12T13:30:48.050Z,54.70
2018-02-12T13:33:15.542Z,54.60
2018-02-12T13:35:42.988Z,54.20
2018-02-12T13:38:10.840Z,51.50
2018-02-12T13:40:38.293Z,50.10
2018-02-12T13:43:06.534Z,47.90
2018-02-12T13:45:33.973Z,46.40
2018-02-12T13:48:01.619Z,46.80
2018-02-12T13:50:29.088Z,48.30
2018-02-12T13:52:56.533Z,49.50
2018-02-12T13:55:23.973Z,50.10
2018-02-12T13:57:51.424Z,50.90
2018-02-12T14:00:18.857Z,50.90
2018-02-12T14:02:46.312Z,50.50
2018-02-12T14:05:13.763Z,49.30
2018-02-12T14:07:41.209Z,48.80
2018-02-12T14:10:09.413Z,49.20
2018-02-12T14:12:36.857Z,49.70
2018-02-12T14:15:04.288Z,50.10
2018-02-12T14:17:31.730Z,49.70
2018-02-12T14:19:59.180Z,50.50
2018-02-12T14:22:26.617Z,50.20
2018-02-12T14:24:54.052Z,49.00
2018-02-12T14:27:22.435Z,48.00
2018-02-12T14:29:49.892Z,45.40
2018-02-12T14:32:17.350Z,43.90
2018-02-12T14:34:44.924Z,42.50
2018-02-12T14:37:12.708Z,41.60
2018-02-12T14:39:40.184Z,42.40
2018-02-12T14:42:07.645Z,44.10
2018-02-12T14:44:35.095Z,45.80
2018-02-12T14:47:02.525Z,46.50
2018-02-12T14:49:31.614Z,49.10
2018-02-12T14:51:59.313Z,49.00
2018-02-12T14:54:26.780Z,49.80
2018-02-12T14:56:54.225Z,50.00
2018-02-12T14:59:21.677Z,49.50
2018-02-12T15:01:49.108Z,49.20
2018-02-12T15:04:17.327Z,48.30
2018-02-12T15:06:44.765Z,48.30
2018-02-12T15:09:12.217Z,47.00
2018-02-12T15:11:39.667Z,45.80
2018-02-12T15:14:07.092Z,44.90
2018-02-12T15:16:34.683Z,45.60
2018-02-12T15:19:02.105Z,46.50
2018-02-12T15:21:29.587Z,46.60
2018-02-12T15:23:57.017Z,45.90
2018-02-12T15:26:24.457Z,45.40
2018-02-12T15:28:51.896Z,45.90
2018-02-12T15:31:20.099Z,46.90
2018-02-12T15:33:47.541Z,46.70
2018-02-12T15:36:14.982Z,47.20
2018-02-12T15:38:43.933Z,49.00
2018-02-12T15:41:11.394Z,48.90
2018-02-12T15:43:38.838Z,49.20
2018-02-12T15:46:06.276Z,50.00
2018-02-12T15:48:34.496Z,52.50
2018-02-12T15:51:01.917Z,53.10
2018-02-12T15:53:29.361Z,53.00
2018-02-12T15:55:56.789Z,53.20
2018-02-12T15:58:24.241Z,53.20
2018-02-12T16:00:51.708Z,53.30
2018-02-12T16:03:19.168Z,53.90
2018-02-12T16:05:46.620Z,54.00
2018-02-12T16:08:14.064Z,54.20
2018-02-12T16:10:41.567Z,53.80
2018-02-12T16:13:08.962Z,54.30
2018-02-12T16:15:36.409Z,54.30
2018-02-12T16:18:03.950Z,54.70
2018-02-12T16:20:31.389Z,55.00
2018-02-12T16:22:58.838Z,55.30
2018-02-12T16:25:26.306Z,55.80
2018-02-12T16:27:53.838Z,56.20
2018-02-12T16:30:22.062Z,57.00
2018-02-12T16:32:49.501Z,57.00
2018-02-12T16:35:16.977Z,57.20
2018-02-12T16:37:44.434Z,57.20
2018-02-12T16:40:11.875Z,57.30
2018-02-12T16:42:40.076Z,57.90
2018-02-12T16:45:07.518Z,57.90
2018-02-12T16:47:34.981Z,58.00
2018-02-12T16:50:02.417Z,58.90
2018-02-12T16:52:29.859Z,58.90
2018-02-12T16:54:57.308Z,58.80
2018-02-12T16:57:24.749Z,58.90
2018-02-12T16:59:52.196Z,59.20
2018-02-12T17:02:22.692Z,59.30
2018-02-12T17:04:50.888Z,59.30
2018-02-12T17:07:18.340Z,59.20
2018-02-12T17:09:45.780Z,59.80
2018-02-12T17:12:13.237Z,60.50
2018-02-12T17:14:40.675Z,60.20
2018-02-12T17:17:08.106Z,60.30
2018-02-12T17:19:35.561Z,60.40
2018-02-12T17:22:03.001Z,61.40
2018-02-12T17:24:31.225Z,61.00
2018-02-12T17:26:58.660Z,60.90
2018-02-12T17:29:26.093Z,61.50
2018-02-12T17:31:53.541Z,61.80
2018-02-12T17:34:21.097Z,62.00
2018-02-12T17:36:48.548Z,62.20
2018-02-12T17:39:16.026Z,62.10
2018-02-12T17:41:43.527Z,62.00
2018-02-12T17:44:10.930Z,61.80
2018-02-12T17:46:38.707Z,62.00
2018-02-12T17:49:06.161Z,62.30
2018-02-12T17:51:33.624Z,62.20
2018-02-12T17:54:01.068Z,62.30
2018-02-12T17:56:28.509Z,62.30
2018-02-12T17:58:55.948Z,62.30
2018-02-12T18:01:24.220Z,62.60
2018-02-12T18:03:51.644Z,62.40
2018-02-12T18:06:19.089Z,62.70
2018-02-12T18:08:46.537Z,63.50
2018-02-12T18:11:14.029Z,63.70
2018-02-12T18:13:41.484Z,63.60
2018-02-12T18:16:08.926Z,64.00
2018-02-12T18:18:36.379Z,63.90
2018-02-12T18:21:03.817Z,63.80
2018-02-12T18:23:31.264Z,64.00
2018-02-12T18:26:00.228Z,63.90
2018-02-12T18:28:27.665Z,63.90
2018-02-12T18:30:55.138Z,64.30
2018-02-12T18:33:22.600Z,64.40
2018-02-12T18:35:50.046Z,64.80
2018-02-12T18:38:17.480Z,64.80
2018-02-12T18:40:44.971Z,64.30
2018-02-12T18:43:12.377Z,64.30
2018-02-12T18:45:49.809Z,64.60
2018-02-12T18:48:17.257Z,64.50
2018-02-12T18:50:44.693Z,64.50
2018-02-12T18:53:12.121Z,64.30
2018-02-12T18:55:39.586Z,64.00
2018-02-12T18:58:07.021Z,64.00
2018-02-12T19:00:34.494Z,64.00
2018-02-12T19:03:01.925Z,64.00
2018-02-12T19:05:29.365Z,63.80
2018-02-12T19:07:56.820Z,63.80
2018-02-12T19:10:24.248Z,63.70
2018-02-12T19:12:51.699Z,63.90
2018-02-12T19:15:19.124Z,64.00
2018-02-12T19:17:47.337Z,64.40
2018-02-12T19:20:14.789Z,64.30
2018-02-12T19:22:42.228Z,64.60
2018-02-12T19:25:09.684Z,64.80
2018-02-12T19:27:37.954Z,65.00
2018-02-12T19:30:06.915Z,65.10
2018-02-12T19:32:34.372Z,65.10
2018-02-12T19:35:01.801Z,65.10
2018-02-12T19:37:30.022Z,65.20
2018-02-12T19:39:57.458Z,65.00
2018-02-12T19:42:24.906Z,65.00
2018-02-12T19:44:53.100Z,65.10
2018-02-12T19:47:20.529Z,65.00
2018-02-12T19:49:47.984Z,65.40
2018-02-12T19:52:15.440Z,65.40
2018-02-12T19:54:42.874Z,66.40
2018-02-12T19:57:10.330Z,65.60
2018-02-12T19:59:37.779Z,65.90
2018-02-12T20:02:05.243Z,66.10
2018-02-12T20:04:32.732Z,66.20
2018-02-12T20:07:00.122Z,66.40
2018-02-12T20:09:27.557Z,66.50
2018-02-12T20:11:54.997Z,66.70
2018-02-12T20:14:22.468Z,66.60
2018-02-12T20:16:49.898Z,66.80
2018-02-12T20:19:18.104Z,67.40
2018-02-12T20:21:45.580Z,67.20
2018-02-12T20:24:13.022Z,67.30
2018-02-12T20:26:40.481Z,67.40
2018-02-12T20:29:08.161Z,67.50
2018-02-12T20:31:35.619Z,67.80
2018-02-12T20:34:03.074Z,67.90
2018-02-12T20:36:30.525Z,68.20
2018-02-12T20:38:58.114Z,68.40
2018-02-12T20:41:25.591Z,68.50
2018-02-12T20:43:53.043Z,69.00
2018-02-12T20:46:23.659Z,69.70
2018-02-12T20:48:51.106Z,70.20
2018-02-12T20:51:18.574Z,70.50
2018-02-12T20:53:46.013Z,70.80
2018-02-12T20:56:13.452Z,71.10
2018-02-12T20:58:40.909Z,71.30
2018-02-12T21:01:08.344Z,72.40
2018-02-12T21:03:35.805Z,71.80
2018-02-12T21:06:03.253Z,71.90
2018-02-12T21:08:30.694Z,72.10
2018-02-12T21:10:58.298Z,72.30
2018-02-12T21:13:25.736Z,72.80
2018-02-12T21:15:53.200Z,73.00
2018-02-12T21:18:20.629Z,73.10
2018-02-12T21:20:48.239Z,73.40
2018-02-12T21:23:15.698Z,73.80
2018-02-12T21:25:43.140Z,74.10
2018-02-12T21:28:10.602Z,75.30
2018-02-12T21:30:39.257Z,74.60
2018-02-12T21:33:06.679Z,74.90
2018-02-12T21:35:34.128Z,75.10
2018-02-12T21:38:01.578Z,75.40
2018-02-12T21:40:29.034Z,75.60
2018-02-12T21:42:56.473Z,75.90
2018-02-12T21:45:23.908Z,76.10
2018-02-12T21:47:51.371Z,76.10
2018-02-12T21:50:18.801Z,76.40
2018-02-12T21:52:46.261Z,76.70
2018-02-12T21:55:13.689Z,77.00
2018-02-12T21:57:41.133Z,77.50
2018-02-12T22:00:08.603Z,77.80
2018-02-12T22:02:36.052Z,78.50
2018-02-12T22:05:03.501Z,78.80
2018-02-12T22:07:31.722Z,80.00
2018-02-12T22:09:59.156Z,79.80
2018-02-12T22:12:26.614Z,80.20
2018-02-12T22:14:54.228Z,80.20
2018-02-12T22:17:21.682Z,80.50
2018-02-12T22:19:49.121Z,81.00
2018-02-12T22:22:16.588Z,81.40
2018-02-12T22:24:44.061Z,81.20
2018-02-12T22:27:11.512Z,81.30
2018-02-12T22:29:38.968Z,81.60
2018-02-12T22:32:06.419Z,82.00
2018-02-12T22:34:33.849Z,82.30
2018-02-12T22:37:01.305Z,82.70
2018-02-12T22:39:29.527Z,83.50
2018-02-12T22:41:56.991Z,83.40
2018-02-12T22:44:24.778Z,83.80
2018-02-12T22:46:52.268Z,84.00
2018-02-12T22:49:19.700Z,84.20
2018-02-12T22:51:47.286Z,84.40
2018-02-12T22:54:14.734Z,84.20
2018-02-12T22:56:42.175Z,84.20
2018-02-12T22:59:09.616Z,84.30
2018-02-12T23:01:37.094Z,84.30
2018-02-12T23:04:04.543Z,84.40
2018-02-12T23:06:31.998Z,84.40
2018-02-12T23:08:59.442Z,84.50
2018-02-12T23:16:02.302Z,84.70
2018-02-12T23:18:29.789Z,84.80
2018-02-12T23:20:57.234Z,85.00
2018-02-12T23:23:24.692Z,85.20
2018-02-12T23:25:52.141Z,85.10
2018-02-12T23:28:22.212Z,86.00
2018-02-12T23:30:50.432Z,84.90
2018-02-12T23:33:17.874Z,84.80
2018-02-12T23:35:46.094Z,84.60
2018-02-12T23:38:13.524Z,84.50
2018-02-12T23:40:40.967Z,84.50
2018-02-12T23:43:09.186Z,84.30
2018-02-12T23:45:36.624Z,84.10
2018-02-12T23:48:04.084Z,84.30
2018-02-12T23:50:31.546Z,84.00
2018-02-12T23:52:59.745Z,84.10
2018-02-12T23:55:27.209Z,84.00
2018-02-12T23:57:54.648Z,84.10
